createdAt,value
2023-05-17T00:01:47.314Z,18.21
2023-05-17T00:04:14.262Z,18.20
2023-05-17T00:06:41.134Z,18.21
2023-05-17T00:09:08.540Z,18.21
2023-05-17T00:11:35.772Z,18.22
2023-05-17T00:14:03.431Z,18.22
2023-05-17T00:16:30.303Z,18.23
2023-05-17T00:18:57.365Z,18.22
2023-05-17T00:21:24.500Z,18.21
2023-05-17T00:23:51.371Z,18.19
2023-05-17T00:26:18.234Z,18.14
2023-05-17T00:28:45.354Z,18.10
2023-05-17T00:31:14.458Z,18.09
2023-05-17T00:33:41.366Z,18.09
2023-05-17T00:36:08.329Z,18.07
2023-05-17T00:38:35.480Z,18.04
2023-05-17T00:41:07.404Z,18.02
2023-05-17T00:43:35.174Z,17.99
2023-05-17T00:46:02.146Z,17.97
2023-05-17T00:48:29.335Z,17.94
2023-05-17T00:50:56.483Z,17.94
2023-05-17T00:53:23.623Z,17.93
2023-05-17T00:55:50.532Z,17.90
2023-05-17T00:58:17.652Z,17.88
2023-05-17T01:00:46.504Z,17.88
2023-05-17T01:03:13.914Z,17.87
2023-05-17T01:05:41.714Z,17.85
2023-05-17T01:08:08.840Z,17.81
2023-05-17T01:10:39.084Z,17.80
2023-05-17T01:13:29.125Z,17.78
2023-05-17T01:16:09.069Z,17.77
2023-05-17T01:18:40.316Z,17.75
2023-05-17T01:21:35.512Z,17.74
2023-05-17T01:24:26.848Z,17.71
2023-05-17T01:26:54.159Z,17.68
2023-05-17T01:29:27.245Z,17.67
2023-05-17T01:31:56.285Z,17.69
2023-05-17T01:34:25.874Z,17.70
2023-05-17T01:36:52.723Z,17.67
2023-05-17T01:39:19.650Z,17.64
2023-05-17T01:41:55.115Z,17.62
2023-05-17T01:44:47.224Z,17.61
2023-05-17T01:47:24.166Z,17.57
2023-05-17T01:49:57.778Z,17.53
2023-05-17T01:52:29.307Z,17.52
2023-05-17T01:55:10.358Z,17.54
2023-05-17T01:57:37.676Z,17.52
2023-05-17T02:00:09.682Z,17.47
2023-05-17T02:02:45.017Z,17.44
2023-05-17T02:05:12.135Z,17.43
2023-05-17T02:07:41.349Z,17.41
2023-05-17T02:10:13.689Z,17.41
2023-05-17T02:12:43.429Z,17.41
2023-05-17T02:15:11.503Z,17.39
2023-05-17T02:17:45.180Z,17.37
2023-05-17T02:20:12.448Z,17.37
2023-05-17T02:22:39.801Z,17.38
2023-05-17T02:25:12.586Z,17.38
2023-05-17T02:27:40.338Z,17.37
2023-05-17T02:30:09.973Z,17.37
2023-05-17T02:32:38.363Z,17.38
2023-05-17T02:35:07.108Z,17.38
2023-05-17T02:37:34.168Z,17.38
2023-05-17T02:40:01.028Z,17.40
2023-05-17T02:42:27.934Z,17.43
2023-05-17T02:44:57.437Z,17.45
2023-05-17T02:47:24.311Z,17.46
2023-05-17T02:49:51.637Z,17.44
2023-05-17T02:52:18.474Z,17.45
2023-05-17T02:54:45.420Z,17.40
2023-05-17T02:57:12.615Z,17.39
2023-05-17T02:59:39.434Z,17.42
2023-05-17T03:02:06.791Z,17.45
2023-05-17T03:04:33.691Z,17.45
2023-05-17T03:07:00.562Z,17.44
2023-05-17T03:09:29.756Z,17.40
2023-05-17T03:11:57.274Z,17.41
2023-05-17T03:14:27.697Z,17.41
2023-05-17T03:16:54.809Z,17.46
2023-05-17T03:19:23.018Z,17.49
2023-05-17T03:21:51.567Z,17.49
2023-05-17T03:24:23.716Z,17.47
2023-05-17T03:26:51.251Z,17.47
2023-05-17T03:29:18.165Z,17.48
2023-05-17T03:31:45.481Z,17.49
2023-05-17T03:34:13.255Z,17.54
2023-05-17T03:36:40.812Z,17.57
2023-05-17T03:39:08.463Z,17.58
2023-05-17T03:42:14.253Z,17.62
2023-05-17T03:44:42.000Z,17.66
2023-05-17T03:47:08.889Z,17.69
2023-05-17T03:49:36.112Z,17.71
2023-05-17T03:52:04.236Z,17.75
2023-05-17T03:54:31.561Z,17.81
2023-05-17T03:56:58.391Z,17.89
2023-05-17T03:59:25.414Z,17.95
2023-05-17T04:01:52.330Z,17.97
2023-05-17T04:04:19.390Z,17.96
2023-05-17T04:06:46.611Z,18.01
2023-05-17T04:09:15.058Z,18.04
2023-05-17T04:11:42.916Z,18.08
2023-05-17T04:14:17.562Z,18.17
2023-05-17T04:16:44.503Z,18.21
2023-05-17T04:19:11.352Z,18.22
2023-05-17T04:21:39.980Z,18.27
2023-05-17T04:24:07.167Z,18.34
2023-05-17T04:26:35.156Z,18.32
2023-05-17T04:29:03.198Z,18.43
2023-05-17T04:31:31.566Z,18.56
2023-05-17T04:33:58.456Z,18.59
2023-05-17T04:36:26.000Z,18.50
2023-05-17T04:38:53.992Z,18.53
2023-05-17T04:41:24.245Z,18.58
2023-05-17T04:43:51.512Z,18.66
2023-05-17T04:46:22.658Z,18.72
2023-05-17T04:48:49.842Z,18.71
2023-05-17T04:51:17.809Z,18.72
2023-05-17T04:53:45.295Z,18.63
2023-05-17T04:56:16.251Z,18.62
2023-05-17T04:58:43.606Z,18.64
2023-05-17T05:01:11.720Z,18.71
2023-05-17T05:03:39.778Z,18.72
2023-05-17T05:06:07.812Z,18.72
2023-05-17T05:08:35.182Z,18.77
2023-05-17T05:11:02.562Z,18.73
2023-05-17T05:13:29.992Z,18.69
2023-05-17T05:15:56.922Z,18.65
2023-05-17T05:18:24.809Z,18.68
2023-05-17T05:20:52.127Z,18.75
2023-05-17T05:23:19.273Z,18.77
2023-05-17T05:25:47.852Z,18.84
2023-05-17T05:28:15.487Z,18.91
2023-05-17T05:30:42.937Z,18.97
2023-05-17T05:33:11.260Z,19.00
2023-05-17T05:35:38.522Z,18.99
2023-05-17T05:38:05.427Z,19.01
2023-05-17T05:40:33.213Z,19.00
2023-05-17T05:43:00.739Z,19.04
2023-05-17T05:45:27.743Z,19.11
2023-05-17T05:47:57.522Z,19.16
2023-05-17T05:50:24.725Z,19.09
2023-05-17T05:52:58.093Z,19.05
2023-05-17T05:55:34.229Z,19.14
2023-05-17T05:58:01.271Z,19.30
2023-05-17T06:00:28.861Z,19.47
2023-05-17T06:02:56.990Z,19.62
2023-05-17T06:05:23.948Z,19.74
2023-05-17T06:07:50.958Z,19.84
2023-05-17T06:10:17.894Z,19.88
2023-05-17T06:12:45.442Z,19.95
2023-05-17T06:15:12.353Z,20.03
2023-05-17T06:17:41.762Z,20.01
2023-05-17T06:20:09.329Z,20.07
2023-05-17T06:22:36.560Z,20.18
2023-05-17T06:25:04.614Z,20.24
2023-05-17T06:27:35.052Z,20.30
2023-05-17T06:30:05.528Z,20.36
2023-05-17T06:32:34.901Z,20.55
2023-05-17T06:35:02.073Z,20.75
2023-05-17T06:37:29.344Z,20.94
2023-05-17T06:40:15.547Z,21.11
2023-05-17T06:42:44.222Z,21.26
2023-05-17T06:45:12.576Z,21.41
2023-05-17T06:47:39.864Z,21.55
2023-05-17T06:50:08.351Z,21.63
2023-05-17T06:52:35.761Z,21.71
2023-05-17T06:55:03.328Z,21.75
2023-05-17T06:57:30.843Z,21.77
2023-05-17T06:59:57.936Z,21.82
2023-05-17T07:02:24.894Z,21.91
2023-05-17T07:04:51.891Z,21.96
2023-05-17T07:07:19.115Z,22.05
2023-05-17T07:09:46.101Z,22.20
2023-05-17T07:12:13.167Z,22.25
2023-05-17T07:14:40.400Z,22.25
2023-05-17T07:17:07.268Z,22.21
2023-05-17T07:19:34.258Z,22.18
2023-05-17T07:22:01.449Z,22.22
2023-05-17T07:24:28.497Z,22.30
2023-05-17T07:26:55.747Z,22.35
2023-05-17T07:29:22.772Z,22.38
2023-05-17T07:31:51.230Z,22.40
2023-05-17T07:34:18.112Z,22.28
2023-05-17T07:36:45.436Z,22.33
2023-05-17T07:39:12.611Z,22.49
2023-05-17T07:41:39.479Z,22.65
2023-05-17T07:44:06.492Z,22.80
2023-05-17T07:46:33.772Z,22.95
2023-05-17T07:49:03.869Z,23.14
2023-05-17T07:51:31.436Z,23.17
2023-05-17T07:53:58.414Z,23.18
2023-05-17T07:56:25.461Z,23.27
2023-05-17T07:58:57.621Z,23.46
2023-05-17T08:01:24.514Z,23.71
2023-05-17T08:03:52.917Z,23.95
2023-05-17T08:06:19.998Z,24.12
2023-05-17T08:08:47.056Z,24.19
2023-05-17T08:11:14.507Z,24.31
2023-05-17T08:13:41.591Z,24.38
2023-05-17T08:16:14.251Z,24.39
2023-05-17T08:18:42.881Z,24.42
2023-05-17T08:21:10.702Z,24.43
2023-05-17T08:23:37.552Z,24.49
2023-05-17T08:26:04.479Z,24.51
2023-05-17T08:28:31.521Z,24.55
2023-05-17T08:30:58.775Z,24.66
2023-05-17T08:33:27.063Z,24.67
2023-05-17T08:35:54.821Z,24.76
2023-05-17T08:38:21.825Z,24.93
2023-05-17T08:40:55.735Z,25.17
2023-05-17T08:43:25.251Z,25.38
2023-05-17T08:45:57.137Z,25.65
2023-05-17T08:48:25.903Z,25.94
2023-05-17T08:50:53.697Z,26.21
2023-05-17T08:53:21.506Z,26.40
2023-05-17T08:55:49.028Z,26.69
2023-05-17T08:58:18.720Z,27.02
2023-05-17T09:00:46.668Z,27.44
2023-05-17T09:03:15.401Z,27.94
2023-05-17T09:05:42.896Z,28.41
2023-05-17T09:08:13.440Z,28.78
2023-05-17T09:10:47.656Z,29.17
2023-05-17T09:13:15.146Z,29.71
2023-05-17T09:15:47.071Z,30.20
2023-05-17T09:18:16.276Z,30.79
2023-05-17T09:20:49.978Z,31.34
2023-05-17T09:23:18.874Z,31.75
2023-05-17T09:25:47.597Z,31.91
2023-05-17T09:28:15.138Z,32.26
2023-05-17T09:30:42.781Z,32.74
2023-05-17T09:33:10.911Z,33.14
2023-05-17T09:35:38.256Z,33.38
2023-05-17T09:38:07.414Z,33.72
2023-05-17T09:40:42.146Z,34.16
2023-05-17T09:43:10.270Z,34.44
2023-05-17T09:45:37.452Z,34.70
2023-05-17T09:48:17.780Z,35.02
2023-05-17T09:50:45.960Z,35.23
2023-05-17T09:53:25.784Z,35.53
2023-05-17T09:55:54.174Z,35.78
2023-05-17T09:58:21.645Z,36.00
2023-05-17T10:00:54.621Z,36.29
2023-05-17T10:03:22.079Z,36.50
2023-05-17T10:05:51.023Z,36.52
2023-05-17T10:08:19.843Z,36.18
2023-05-17T10:10:46.754Z,36.04
2023-05-17T10:13:13.678Z,35.93
2023-05-17T10:15:40.789Z,35.86
2023-05-17T10:18:08.679Z,35.60
2023-05-17T10:20:36.506Z,35.67
2023-05-17T10:23:05.779Z,35.72
2023-05-17T10:25:33.115Z,35.74
2023-05-17T10:28:00.334Z,36.06
2023-05-17T10:30:28.003Z,36.40
2023-05-17T10:32:55.517Z,36.72
2023-05-17T10:35:22.647Z,36.95
2023-05-17T10:37:50.219Z,37.19
2023-05-17T10:40:17.145Z,37.65
2023-05-17T10:42:54.036Z,37.92
2023-05-17T10:45:23.347Z,38.09
2023-05-17T10:47:54.166Z,37.98
2023-05-17T10:50:25.678Z,37.85
2023-05-17T10:52:53.113Z,37.79
2023-05-17T10:55:24.625Z,38.10
2023-05-17T10:58:10.282Z,38.50
2023-05-17T11:00:43.613Z,38.55
2023-05-17T11:03:17.538Z,38.58
2023-05-17T11:06:06.419Z,38.69
2023-05-17T11:08:34.060Z,38.68
2023-05-17T11:11:16.948Z,38.54
2023-05-17T11:13:52.218Z,38.41
2023-05-17T11:16:34.300Z,38.54
2023-05-17T11:19:08.930Z,38.87
2023-05-17T11:21:36.193Z,39.24
2023-05-17T11:24:03.904Z,39.43
2023-05-17T11:26:37.070Z,39.25
2023-05-17T11:29:08.315Z,39.12
2023-05-17T11:31:36.053Z,39.05
2023-05-17T11:34:03.671Z,39.15
2023-05-17T11:36:31.788Z,39.50
2023-05-17T11:39:15.361Z,39.84
2023-05-17T11:41:52.431Z,40.00
2023-05-17T11:44:28.973Z,40.03
2023-05-17T11:47:06.532Z,40.00
2023-05-17T11:49:37.040Z,39.91
2023-05-17T11:52:07.547Z,39.91
2023-05-17T11:54:37.892Z,39.95
2023-05-17T11:57:05.029Z,40.05
2023-05-17T11:59:39.574Z,40.01
2023-05-17T12:02:07.434Z,40.00
2023-05-17T12:04:36.868Z,39.80
2023-05-17T12:07:03.895Z,39.65
2023-05-17T12:09:31.907Z,39.72
2023-05-17T12:12:04.242Z,39.67
2023-05-17T12:14:31.418Z,39.52
2023-05-17T12:17:00.829Z,39.36
2023-05-17T12:19:29.369Z,39.36
2023-05-17T12:22:13.273Z,39.51
2023-05-17T12:24:41.711Z,39.67
2023-05-17T12:27:08.888Z,39.76
2023-05-17T12:29:36.302Z,39.64
2023-05-17T12:32:03.619Z,39.56
2023-05-17T12:34:30.613Z,39.51
2023-05-17T12:36:57.537Z,39.31
2023-05-17T12:39:24.554Z,38.98
2023-05-17T12:41:51.924Z,38.86
2023-05-17T12:44:22.140Z,38.80
2023-05-17T12:46:53.450Z,38.85
2023-05-17T12:49:23.309Z,38.86
2023-05-17T12:51:50.351Z,38.75
2023-05-17T12:54:23.521Z,38.59
2023-05-17T12:56:50.950Z,38.50
2023-05-17T12:59:18.419Z,38.41
2023-05-17T13:01:50.119Z,38.19
2023-05-17T13:04:18.066Z,38.07
2023-05-17T13:06:52.107Z,38.11
2023-05-17T13:09:20.617Z,38.19
2023-05-17T13:11:56.074Z,38.07
2023-05-17T13:14:45.694Z,37.99
2023-05-17T13:17:23.501Z,37.81
2023-05-17T13:19:50.557Z,37.68
2023-05-17T13:22:18.026Z,37.64
2023-05-17T13:24:45.147Z,37.61
2023-05-17T13:27:17.338Z,37.47
2023-05-17T13:29:45.676Z,37.37
2023-05-17T13:32:13.161Z,37.13
2023-05-17T13:34:40.711Z,37.05
2023-05-17T13:37:11.501Z,36.87
2023-05-17T13:39:40.576Z,36.70
2023-05-17T13:42:07.778Z,36.58
2023-05-17T13:44:34.834Z,36.56
2023-05-17T13:47:01.697Z,36.44
2023-05-17T13:49:28.975Z,36.01
2023-05-17T13:51:56.202Z,35.78
2023-05-17T13:54:23.597Z,35.55
2023-05-17T13:56:50.663Z,35.42
2023-05-17T13:59:18.171Z,35.23
2023-05-17T14:01:45.311Z,35.00
2023-05-17T14:04:12.352Z,34.95
2023-05-17T14:06:41.006Z,34.80
2023-05-17T14:09:07.999Z,34.50
2023-05-17T14:11:35.114Z,34.31
2023-05-17T14:14:03.612Z,34.05
2023-05-17T14:16:30.646Z,33.80
2023-05-17T14:18:57.667Z,33.49
2023-05-17T14:21:24.828Z,33.33
2023-05-17T14:23:52.022Z,33.20
2023-05-17T14:26:18.922Z,32.93
2023-05-17T14:28:51.371Z,32.72
2023-05-17T14:31:18.217Z,32.59
2023-05-17T14:33:45.183Z,32.38
2023-05-17T14:36:14.032Z,32.28
2023-05-17T14:38:41.476Z,32.11
2023-05-17T14:41:08.474Z,31.86
2023-05-17T14:43:36.171Z,31.54
2023-05-17T14:46:03.462Z,31.30
2023-05-17T14:48:36.434Z,31.26
2023-05-17T14:51:03.603Z,31.23
2023-05-17T14:53:31.514Z,31.13
2023-05-17T14:55:58.717Z,31.04
2023-05-17T14:58:25.994Z,31.03
2023-05-17T15:01:05.222Z,30.98
2023-05-17T15:03:34.468Z,30.80
2023-05-17T15:06:03.388Z,30.49
2023-05-17T15:08:35.464Z,29.97
2023-05-17T15:11:02.457Z,29.64
2023-05-17T15:13:29.850Z,29.46
2023-05-17T15:15:56.699Z,29.31
2023-05-17T15:18:23.688Z,29.09
2023-05-17T15:20:51.309Z,28.92
2023-05-17T15:23:23.433Z,28.76
2023-05-17T15:25:50.753Z,28.68
2023-05-17T15:28:20.300Z,28.57
2023-05-17T15:30:47.326Z,28.43
2023-05-17T15:33:14.621Z,28.23
2023-05-17T15:35:42.763Z,28.04
2023-05-17T15:38:10.479Z,27.96
2023-05-17T15:40:38.172Z,27.78
2023-05-17T15:43:05.027Z,27.60
2023-05-17T15:45:32.341Z,27.59
2023-05-17T15:48:01.378Z,27.48
2023-05-17T15:50:33.650Z,27.33
2023-05-17T15:53:02.447Z,27.25
2023-05-17T15:55:29.759Z,27.13
2023-05-17T15:57:56.878Z,26.95
2023-05-17T16:00:23.988Z,26.78
2023-05-17T16:02:51.156Z,26.67
2023-05-17T16:05:18.176Z,26.56
2023-05-17T16:07:45.921Z,26.31
2023-05-17T16:10:18.140Z,26.02
2023-05-17T16:12:46.975Z,25.82
2023-05-17T16:15:13.962Z,25.67
2023-05-17T16:17:41.208Z,25.57
2023-05-17T16:20:08.671Z,25.47
2023-05-17T16:22:36.741Z,25.40
2023-05-17T16:25:05.751Z,25.26
2023-05-17T16:27:32.827Z,25.07
2023-05-17T16:29:59.697Z,24.90
2023-05-17T16:32:26.628Z,24.78
2023-05-17T16:34:53.556Z,24.64
2023-05-17T16:37:21.110Z,24.55
2023-05-17T16:39:48.097Z,24.49
2023-05-17T16:42:15.172Z,24.41
2023-05-17T16:44:42.087Z,24.34
2023-05-17T16:47:09.218Z,24.22
2023-05-17T16:49:36.792Z,24.09
2023-05-17T16:52:03.946Z,23.90
2023-05-17T16:54:33.278Z,23.77
2023-05-17T16:57:01.605Z,23.67
2023-05-17T16:59:28.829Z,23.57
2023-05-17T17:01:56.066Z,23.46
2023-05-17T17:04:23.392Z,23.37
2023-05-17T17:06:51.105Z,23.24
2023-05-17T17:09:28.400Z,23.16
2023-05-17T17:11:55.633Z,23.05
2023-05-17T17:14:24.768Z,22.97
2023-05-17T17:16:51.778Z,22.90
2023-05-17T17:19:19.041Z,22.82
2023-05-17T17:21:46.599Z,22.74
2023-05-17T17:24:13.563Z,22.64
2023-05-17T17:26:40.594Z,22.56
2023-05-17T17:29:07.913Z,22.47
2023-05-17T17:31:35.148Z,22.40
2023-05-17T17:34:02.229Z,22.35
2023-05-17T17:36:29.928Z,22.29
2023-05-17T17:38:56.859Z,22.23
2023-05-17T17:41:23.949Z,22.15
2023-05-17T17:43:50.877Z,22.09
2023-05-17T17:46:18.183Z,22.03
2023-05-17T17:48:45.161Z,21.99
2023-05-17T17:51:11.941Z,21.93
2023-05-17T17:53:40.844Z,21.87
2023-05-17T17:56:08.180Z,21.77
2023-05-17T17:58:36.149Z,21.71
2023-05-17T18:01:08.298Z,21.66
2023-05-17T18:03:35.484Z,21.62
2023-05-17T18:06:04.118Z,21.57
2023-05-17T18:08:31.567Z,21.52
2023-05-17T18:10:58.460Z,21.45
2023-05-17T18:13:25.925Z,21.39
2023-05-17T18:15:54.247Z,21.35
2023-05-17T18:18:26.480Z,21.31
2023-05-17T18:20:53.367Z,21.26
2023-05-17T18:23:21.264Z,21.24
2023-05-17T18:25:48.609Z,21.19
2023-05-17T18:28:18.241Z,21.17
2023-05-17T18:30:52.387Z,21.13
2023-05-17T18:33:19.356Z,21.10
2023-05-17T18:35:46.465Z,21.07
2023-05-17T18:38:13.441Z,21.03
2023-05-17T18:40:40.428Z,21.00
2023-05-17T18:43:07.464Z,20.97
2023-05-17T18:45:35.979Z,20.94
2023-05-17T18:48:03.406Z,20.92
2023-05-17T18:50:32.047Z,20.89
2023-05-17T18:53:01.957Z,20.86
2023-05-17T18:55:34.164Z,20.82
2023-05-17T18:58:01.203Z,20.77
2023-05-17T19:00:28.398Z,20.73
2023-05-17T19:02:55.716Z,20.69
2023-05-17T19:05:23.169Z,20.65
2023-05-17T19:07:50.153Z,20.62
2023-05-17T19:10:22.303Z,20.60
2023-05-17T19:12:49.383Z,20.57
2023-05-17T19:15:16.362Z,20.52
2023-05-17T19:17:43.804Z,20.47
2023-05-17T19:20:11.351Z,20.43
2023-05-17T19:22:38.471Z,20.39
2023-05-17T19:25:06.503Z,20.36
2023-05-17T19:27:33.964Z,20.32
2023-05-17T19:30:01.366Z,20.24
2023-05-17T19:32:32.435Z,20.20
2023-05-17T19:35:00.731Z,20.15
2023-05-17T19:37:28.076Z,20.09
2023-05-17T19:39:55.466Z,20.03
2023-05-17T19:42:23.091Z,19.99
2023-05-17T19:44:50.187Z,19.93
2023-05-17T19:47:17.175Z,19.87
2023-05-17T19:49:44.289Z,19.79
2023-05-17T19:52:11.815Z,19.74
2023-05-17T19:54:38.830Z,19.68
2023-05-17T19:57:06.021Z,19.61
2023-05-17T19:59:33.659Z,19.58
2023-05-17T20:02:00.934Z,19.54
2023-05-17T20:04:27.980Z,19.48
2023-05-17T20:06:54.931Z,19.44
2023-05-17T20:09:24.594Z,19.40
2023-05-17T20:11:54.269Z,19.37
2023-05-17T20:14:27.403Z,19.33
2023-05-17T20:16:54.456Z,19.27
2023-05-17T20:19:21.677Z,19.23
2023-05-17T20:21:48.993Z,19.19
2023-05-17T20:24:15.946Z,19.15
2023-05-17T20:26:45.951Z,19.12
2023-05-17T20:29:12.976Z,19.10
2023-05-17T20:31:40.275Z,19.05
2023-05-17T20:34:07.673Z,19.00
2023-05-17T20:36:40.469Z,18.95
2023-05-17T20:39:07.485Z,18.92
2023-05-17T20:41:34.674Z,18.91
2023-05-17T20:44:01.882Z,18.85
2023-05-17T20:46:29.432Z,18.79
2023-05-17T20:48:57.629Z,18.72
2023-05-17T20:51:26.505Z,18.66
2023-05-17T20:53:53.832Z,18.61
2023-05-17T20:56:20.681Z,18.55
2023-05-17T20:58:48.074Z,18.51
2023-05-17T21:01:14.986Z,18.49
2023-05-17T21:03:42.696Z,18.44
2023-05-17T21:06:10.294Z,18.35
2023-05-17T21:08:37.881Z,18.27
2023-05-17T21:11:05.138Z,18.19
2023-05-17T21:13:32.396Z,18.09
2023-05-17T21:15:59.333Z,18.01
2023-05-17T21:18:26.215Z,17.96
2023-05-17T21:20:59.608Z,17.91
2023-05-17T21:23:26.507Z,17.88
2023-05-17T21:25:58.683Z,17.86
2023-05-17T21:28:25.683Z,17.86
2023-05-17T21:30:52.735Z,17.82
2023-05-17T21:33:19.782Z,17.78
2023-05-17T21:35:46.753Z,17.75
2023-05-17T21:38:18.916Z,17.74
2023-05-17T21:40:45.906Z,17.73
2023-05-17T21:43:12.886Z,17.72
2023-05-17T21:45:41.275Z,17.70
2023-05-17T21:48:08.200Z,17.68
2023-05-17T21:50:35.390Z,17.67
2023-05-17T21:53:02.257Z,17.63
2023-05-17T21:55:36.564Z,17.60
2023-05-17T21:58:15.766Z,17.58
2023-05-17T22:00:43.026Z,17.56
2023-05-17T22:03:10.243Z,17.52
2023-05-17T22:05:43.812Z,17.51
2023-05-17T22:08:10.862Z,17.52
2023-05-17T22:10:40.020Z,17.50
2023-05-17T22:13:11.609Z,17.49
2023-05-17T22:15:38.554Z,17.49
2023-05-17T22:18:05.613Z,17.49
2023-05-17T22:20:32.971Z,17.46
2023-05-17T22:23:00.308Z,17.43
2023-05-17T22:25:27.155Z,17.41
2023-05-17T22:28:01.712Z,17.39
2023-05-17T22:30:34.129Z,17.38
2023-05-17T22:33:02.564Z,17.38
2023-05-17T22:35:29.613Z,17.37
2023-05-17T22:38:02.399Z,17.34
2023-05-17T22:40:29.652Z,17.33
2023-05-17T22:42:58.269Z,17.29
2023-05-17T22:45:32.428Z,17.27
2023-05-17T22:48:02.266Z,17.24
2023-05-17T22:50:30.106Z,17.21
2023-05-17T22:53:00.615Z,17.16
2023-05-17T22:55:38.634Z,17.09
2023-05-17T22:58:05.609Z,17.04
2023-05-17T23:00:32.936Z,16.99
2023-05-17T23:02:59.859Z,16.95
2023-05-17T23:05:26.899Z,16.89
2023-05-17T23:07:54.964Z,16.83
2023-05-17T23:10:21.862Z,16.79
2023-05-17T23:12:50.220Z,16.76
2023-05-17T23:15:19.147Z,16.70
2023-05-17T23:17:46.810Z,16.61
2023-05-17T23:20:13.914Z,16.55
2023-05-17T23:22:40.881Z,16.52
2023-05-17T23:25:08.637Z,16.47
2023-05-17T23:27:35.654Z,16.41
2023-05-17T23:30:03.966Z,16.36
2023-05-17T23:32:34.433Z,16.30
2023-05-17T23:35:04.770Z,16.26
2023-05-17T23:37:35.566Z,16.23
2023-05-17T23:40:11.623Z,16.21
2023-05-17T23:42:39.418Z,16.17
2023-05-17T23:45:07.330Z,16.12
2023-05-17T23:47:34.574Z,16.05
2023-05-17T23:50:02.766Z,15.98
2023-05-17T23:52:31.852Z,15.96
2023-05-17T23:54:58.783Z,15.91
2023-05-17T23:57:25.806Z,15.87
2023-05-17T23:59:52.700Z,15.86
